الصفحة الرئيسية
METAR-TAF:

METAR-TAF

مطار :

مطار ميتشيل رومان الدولي

كورور, Babeldaob, بالاو

دائرة عرض: 07-22N, خط طول: 134-32E, ارتفاع: 54 متر

مراقبة الطقس الحالي

تاريخ ووقت الإصدار 59 دقيقة قبل الساعة 18:50UTC
رياح هادئة
درجة الحرارة 25°درجة مئوية
الرطوبة 94%
ضغط 1009 hPa
الرؤية: 24.1 كم
غيوم متفرقة على ارتفاع 1600 قدم
غيوم مفككة على ارتفاع 12000 قدم
غيوم مفككة على ارتفاع 30000 قدم

METAR: PTRO 181850Z 00000KT 15SM SCT016 BKN120 BKN300 25/24 A2980

زمن: 04:49 (19:49 UTC)

توقعات

تاريخ ووقت الإصدار 2ساعات و 18 دقيقة قبل الساعة 17:31UTC
التوقعات صالحة من18 الساعة 18 UTC إلى 19 الساعة 18 UTC
ريح 5 عقدةمن اتجاهات متغيرة
الرؤية: 10 كم
غيوم متفرقة على ارتفاع 1600 قدم
غيوم مفككة على ارتفاع 12000 قدم
زخات في الجوار

TAF: PTRO 181731Z 1818/1918 VRB05KT P6SM VCSH SCT016 BKN120

أرصاد الطقس والتوقعات من أكثر من 4000 مطار (تقارير الطقس للمطار METAR والتنبؤ بالطقس بالمطارTAF).

المحطات المتاحة هي النقط الصفراء والحمراء على الخريطة.

حرك المؤشر فوق النقطة لمعرفة اسم المحطة.

ثم انقر لمعرفة أرصاد وتوقعات الطقس.

لتغيير الخارطة: اضغط على الأزرار الخضراء مع رمز الصليب الأسود للتكبير. على الزر الأخضر مع شرطة للتصغير، أو على الأسهم الخضراء للخرائط المجاورة.


METAR-TAF: